sensor_id;sensor_type;location;lat;lon;timestamp;temperature;humidity
24408;DHT22;12542;50.924;4.516;2022-09-29T00:01:57;9.20;99.90
24408;DHT22;12542;50.924;4.516;2022-09-29T00:04:24;9.10;99.90
24408;DHT22;12542;50.924;4.516;2022-09-29T00:06:50;9.20;99.90
24408;DHT22;12542;50.924;4.516;2022-09-29T00:09:16;9.10;99.90
24408;DHT22;12542;50.924;4.516;2022-09-29T00:11:42;9.10;99.90
24408;DHT22;12542;50.924;4.516;2022-09-29T00:14:08;9.10;99.90
24408;DHT22;12542;50.924;4.516;2022-09-29T00:16:34;9.10;99.90
24408;DHT22;12542;50.924;4.516;2022-09-29T00:19:00;9.10;99.90
24408;DHT22;12542;50.924;4.516;2022-09-29T00:21:26;9.10;99.90
24408;DHT22;12542;50.924;4.516;2022-09-29T00:23:52;9.10;99.90
24408;DHT22;12542;50.924;4.516;2022-09-29T00:26:23;9.10;99.90
24408;DHT22;12542;50.924;4.516;2022-09-29T00:28:53;9.10;99.90
24408;DHT22;12542;50.924;4.516;2022-09-29T00:31:28;9.10;99.90
24408;DHT22;12542;50.924;4.516;2022-09-29T00:33:55;9.10;99.90
24408;DHT22;12542;50.924;4.516;2022-09-29T00:36:22;9.20;99.90
24408;DHT22;12542;50.924;4.516;2022-09-29T00:38:49;9.20;99.90
24408;DHT22;12542;50.924;4.516;2022-09-29T00:41:22;9.10;99.90
24408;DHT22;12542;50.924;4.516;2022-09-29T00:46:47;9.10;99.90
24408;DHT22;12542;50.924;4.516;2022-09-29T00:52:08;9.10;99.90
24408;DHT22;12542;50.924;4.516;2022-09-29T00:55:14;9.10;99.90
24408;DHT22;12542;50.924;4.516;2022-09-29T00:57:35;9.10;99.90
24408;DHT22;12542;50.924;4.516;2022-09-29T01:00:11;9.10;99.90
24408;DHT22;12542;50.924;4.516;2022-09-29T01:02:39;8.90;99.90
24408;DHT22;12542;50.924;4.516;2022-09-29T01:05:09;8.90;99.90
24408;DHT22;12542;50.924;4.516;2022-09-29T01:07:36;8.90;99.90
24408;DHT22;12542;50.924;4.516;2022-09-29T01:10:01;9.00;99.90
24408;DHT22;12542;50.924;4.516;2022-09-29T01:12:29;9.00;99.90
24408;DHT22;12542;50.924;4.516;2022-09-29T01:14:55;8.90;99.90
24408;DHT22;12542;50.924;4.516;2022-09-29T01:17:22;8.90;99.90
24408;DHT22;12542;50.924;4.516;2022-09-29T01:19:55;9.00;99.90
24408;DHT22;12542;50.924;4.516;2022-09-29T01:30:33;8.80;99.90
24408;DHT22;12542;50.924;4.516;2022-09-29T01:36:18;8.80;99.90
24408;DHT22;12542;50.924;4.516;2022-09-29T01:41:58;8.70;99.90
24408;DHT22;12542;50.924;4.516;2022-09-29T01:44:36;8.70;99.90
24408;DHT22;12542;50.924;4.516;2022-09-29T01:47:15;8.60;99.90
24408;DHT22;12542;50.924;4.516;2022-09-29T01:49:46;8.60;99.90
24408;DHT22;12542;50.924;4.516;2022-09-29T01:52:19;8.60;99.90
24408;DHT22;12542;50.924;4.516;2022-09-29T01:55:01;8.60;99.90
24408;DHT22;12542;50.924;4.516;2022-09-29T01:57:36;8.50;99.90
24408;DHT22;12542;50.924;4.516;2022-09-29T02:00:13;8.60;99.90
24408;DHT22;12542;50.924;4.516;2022-09-29T02:07:47;8.60;99.90
24408;DHT22;12542;50.924;4.516;2022-09-29T02:10:20;8.50;99.90
24408;DHT22;12542;50.924;4.516;2022-09-29T02:12:48;8.50;99.90
24408;DHT22;12542;50.924;4.516;2022-09-29T02:15:26;8.40;99.90
24408;DHT22;12542;50.924;4.516;2022-09-29T02:17:58;8.50;99.90
24408;DHT22;12542;50.924;4.516;2022-09-29T02:20:26;8.50;99.90
24408;DHT22;12542;50.924;4.516;2022-09-29T02:22:54;8.50;99.90
24408;DHT22;12542;50.924;4.516;2022-09-29T02:25:20;8.40;99.90
24408;DHT22;12542;50.924;4.516;2022-09-29T02:27:48;8.40;99.90
24408;DHT22;12542;50.924;4.516;2022-09-29T02:30:15;8.40;99.90
24408;DHT22;12542;50.924;4.516;2022-09-29T02:32:41;8.40;99.90
24408;DHT22;12542;50.924;4.516;2022-09-29T02:35:10;8.30;99.90
24408;DHT22;12542;50.924;4.516;2022-09-29T02:37:43;8.30;99.90
24408;DHT22;12542;50.924;4.516;2022-09-29T02:40:34;8.30;99.90
24408;DHT22;12542;50.924;4.516;2022-09-29T02:45:40;8.30;99.90
24408;DHT22;12542;50.924;4.516;2022-09-29T02:48:32;8.20;99.90
24408;DHT22;12542;50.924;4.516;2022-09-29T02:51:15;8.10;99.90
24408;DHT22;12542;50.924;4.516;2022-09-29T02:57:11;8.00;99.90
24408;DHT22;12542;50.924;4.516;2022-09-29T02:59:55;8.00;99.90
24408;DHT22;12542;50.924;4.516;2022-09-29T03:02:27;8.00;99.90
24408;DHT22;12542;50.924;4.516;2022-09-29T03:04:53;8.00;99.90
24408;DHT22;12542;50.924;4.516;2022-09-29T03:07:20;8.00;99.90
24408;DHT22;12542;50.924;4.516;2022-09-29T03:09:46;8.10;99.90
24408;DHT22;12542;50.924;4.516;2022-09-29T03:12:12;8.10;99.90
24408;DHT22;12542;50.924;4.516;2022-09-29T03:14:38;8.00;99.90
24408;DHT22;12542;50.924;4.516;2022-09-29T03:17:03;8.00;99.90
24408;DHT22;12542;50.924;4.516;2022-09-29T03:19:29;8.10;99.90
24408;DHT22;12542;50.924;4.516;2022-09-29T03:21:56;8.20;99.90
24408;DHT22;12542;50.924;4.516;2022-09-29T03:24:21;8.20;99.90
24408;DHT22;12542;50.924;4.516;2022-09-29T03:26:47;8.20;99.90
24408;DHT22;12542;50.924;4.516;2022-09-29T03:29:13;8.20;99.90
24408;DHT22;12542;50.924;4.516;2022-09-29T03:31:39;8.20;99.90
24408;DHT22;12542;50.924;4.516;2022-09-29T03:34:07;8.20;99.90
24408;DHT22;12542;50.924;4.516;2022-09-29T03:36:33;8.20;99.90
24408;DHT22;12542;50.924;4.516;2022-09-29T03:39:01;8.20;99.90
24408;DHT22;12542;50.924;4.516;2022-09-29T03:41:27;8.20;99.90
24408;DHT22;12542;50.924;4.516;2022-09-29T03:43:53;8.10;99.90
24408;DHT22;12542;50.924;4.516;2022-09-29T03:46:19;8.20;99.90
24408;DHT22;12542;50.924;4.516;2022-09-29T03:48:44;8.10;99.90
24408;DHT22;12542;50.924;4.516;2022-09-29T03:51:10;8.20;99.90
24408;DHT22;12542;50.924;4.516;2022-09-29T03:53:36;8.30;99.90
24408;DHT22;12542;50.924;4.516;2022-09-29T03:56:03;8.20;99.90
24408;DHT22;12542;50.924;4.516;2022-09-29T03:58:28;8.20;99.90
24408;DHT22;12542;50.924;4.516;2022-09-29T04:00:54;8.10;99.90
24408;DHT22;12542;50.924;4.516;2022-09-29T04:03:20;8.20;99.90
24408;DHT22;12542;50.924;4.516;2022-09-29T04:05:47;8.40;99.90
24408;DHT22;12542;50.924;4.516;2022-09-29T04:08:13;8.50;99.90
24408;DHT22;12542;50.924;4.516;2022-09-29T04:10:40;8.50;99.90
24408;DHT22;12542;50.924;4.516;2022-09-29T04:13:06;8.60;99.90
24408;DHT22;12542;50.924;4.516;2022-09-29T04:15:32;8.60;99.90
24408;DHT22;12542;50.924;4.516;2022-09-29T04:17:58;8.70;99.90
24408;DHT22;12542;50.924;4.516;2022-09-29T04:20:24;8.70;99.90
24408;DHT22;12542;50.924;4.516;2022-09-29T04:22:50;8.80;99.90
24408;DHT22;12542;50.924;4.516;2022-09-29T04:25:16;8.80;99.90
24408;DHT22;12542;50.924;4.516;2022-09-29T04:27:42;8.80;99.90
24408;DHT22;12542;50.924;4.516;2022-09-29T04:30:11;8.80;99.90
24408;DHT22;12542;50.924;4.516;2022-09-29T04:32:39;8.80;99.90
24408;DHT22;12542;50.924;4.516;2022-09-29T04:35:08;8.80;99.90
24408;DHT22;12542;50.924;4.516;2022-09-29T04:37:34;8.90;99.90
24408;DHT22;12542;50.924;4.516;2022-09-29T04:39:59;8.90;99.90
24408;DHT22;12542;50.924;4.516;2022-09-29T04:42:26;8.90;99.90
24408;DHT22;12542;50.924;4.516;2022-09-29T04:44:52;9.00;99.90
24408;DHT22;12542;50.924;4.516;2022-09-29T04:47:17;8.80;99.90
24408;DHT22;12542;50.924;4.516;2022-09-29T04:49:44;8.80;99.90
24408;DHT22;12542;50.924;4.516;2022-09-29T04:52:11;8.60;99.90
24408;DHT22;12542;50.924;4.516;2022-09-29T04:54:37;8.50;99.90
24408;DHT22;12542;50.924;4.516;2022-09-29T04:57:06;8.50;99.90
24408;DHT22;12542;50.924;4.516;2022-09-29T04:59:32;8.40;99.90
24408;DHT22;12542;50.924;4.516;2022-09-29T05:01:58;8.50;99.90
24408;DHT22;12542;50.924;4.516;2022-09-29T05:04:24;8.50;99.90
24408;DHT22;12542;50.924;4.516;2022-09-29T05:06:50;8.60;99.90
24408;DHT22;12542;50.924;4.516;2022-09-29T05:09:16;8.60;99.90
24408;DHT22;12542;50.924;4.516;2022-09-29T05:11:41;8.60;99.90
24408;DHT22;12542;50.924;4.516;2022-09-29T05:14:07;8.60;99.90
24408;DHT22;12542;50.924;4.516;2022-09-29T05:16:34;8.60;99.90
24408;DHT22;12542;50.924;4.516;2022-09-29T05:19:00;8.70;99.90
24408;DHT22;12542;50.924;4.516;2022-09-29T05:21:26;8.70;99.90
24408;DHT22;12542;50.924;4.516;2022-09-29T05:23:52;8.70;99.90
24408;DHT22;12542;50.924;4.516;2022-09-29T05:26:17;8.70;99.90
24408;DHT22;12542;50.924;4.516;2022-09-29T05:28:46;8.70;99.90
24408;DHT22;12542;50.924;4.516;2022-09-29T05:31:13;8.70;99.90
24408;DHT22;12542;50.924;4.516;2022-09-29T05:33:39;8.80;99.90
24408;DHT22;12542;50.924;4.516;2022-09-29T05:36:07;8.80;99.90
24408;DHT22;12542;50.924;4.516;2022-09-29T05:38:33;8.70;99.90
24408;DHT22;12542;50.924;4.516;2022-09-29T05:41:03;8.60;99.90
24408;DHT22;12542;50.924;4.516;2022-09-29T05:43:30;8.60;99.90
24408;DHT22;12542;50.924;4.516;2022-09-29T05:46:03;8.60;99.90
24408;DHT22;12542;50.924;4.516;2022-09-29T05:48:29;8.50;99.90
24408;DHT22;12542;50.924;4.516;2022-09-29T05:50:56;8.30;99.90
24408;DHT22;12542;50.924;4.516;2022-09-29T05:53:25;8.20;99.90
24408;DHT22;12542;50.924;4.516;2022-09-29T05:55:51;8.30;99.90
24408;DHT22;12542;50.924;4.516;2022-09-29T05:58:17;8.40;99.90
24408;DHT22;12542;50.924;4.516;2022-09-29T06:00:43;8.50;99.90
24408;DHT22;12542;50.924;4.516;2022-09-29T06:03:10;8.50;99.90
24408;DHT22;12542;50.924;4.516;2022-09-29T06:05:39;8.70;99.90
24408;DHT22;12542;50.924;4.516;2022-09-29T06:08:05;9.10;99.90
24408;DHT22;12542;50.924;4.516;2022-09-29T06:10:31;9.70;99.90
24408;DHT22;12542;50.924;4.516;2022-09-29T06:12:57;10.40;99.90
24408;DHT22;12542;50.924;4.516;2022-09-29T06:15:23;11.10;99.90
24408;DHT22;12542;50.924;4.516;2022-09-29T06:17:56;11.70;99.90
24408;DHT22;12542;50.924;4.516;2022-09-29T06:20:22;12.40;99.90
24408;DHT22;12542;50.924;4.516;2022-09-29T06:22:48;12.80;99.90
24408;DHT22;12542;50.924;4.516;2022-09-29T06:25:16;12.80;99.90
24408;DHT22;12542;50.924;4.516;2022-09-29T06:27:41;12.70;99.90
24408;DHT22;12542;50.924;4.516;2022-09-29T06:30:08;12.50;99.90
24408;DHT22;12542;50.924;4.516;2022-09-29T06:32:33;12.20;99.90
24408;DHT22;12542;50.924;4.516;2022-09-29T06:35:00;11.60;99.90
24408;DHT22;12542;50.924;4.516;2022-09-29T06:37:45;12.00;99.90
24408;DHT22;12542;50.924;4.516;2022-09-29T06:40:12;13.50;99.90
24408;DHT22;12542;50.924;4.516;2022-09-29T06:42:38;15.20;99.90
24408;DHT22;12542;50.924;4.516;2022-09-29T06:45:04;17.30;99.90
24408;DHT22;12542;50.924;4.516;2022-09-29T06:47:30;18.20;99.90
24408;DHT22;12542;50.924;4.516;2022-09-29T06:49:56;18.60;99.20
24408;DHT22;12542;50.924;4.516;2022-09-29T06:52:24;18.60;99.00
24408;DHT22;12542;50.924;4.516;2022-09-29T06:54:49;19.00;97.90
24408;DHT22;12542;50.924;4.516;2022-09-29T06:57:15;19.70;96.70
24408;DHT22;12542;50.924;4.516;2022-09-29T06:59:41;20.10;96.50
24408;DHT22;12542;50.924;4.516;2022-09-29T07:02:09;20.70;94.90
24408;DHT22;12542;50.924;4.516;2022-09-29T07:04:36;21.00;93.40
24408;DHT22;12542;50.924;4.516;2022-09-29T07:07:01;21.40;93.00
24408;DHT22;12542;50.924;4.516;2022-09-29T07:09:29;21.40;92.40
24408;DHT22;12542;50.924;4.516;2022-09-29T07:11:56;21.80;91.00
24408;DHT22;12542;50.924;4.516;2022-09-29T07:14:24;21.70;91.20
24408;DHT22;12542;50.924;4.516;2022-09-29T07:16:50;22.40;89.90
24408;DHT22;12542;50.924;4.516;2022-09-29T07:19:19;22.70;88.70
24408;DHT22;12542;50.924;4.516;2022-09-29T07:21:46;22.60;89.20
24408;DHT22;12542;50.924;4.516;2022-09-29T07:24:12;22.50;87.50
24408;DHT22;12542;50.924;4.516;2022-09-29T07:26:37;21.60;90.30
24408;DHT22;12542;50.924;4.516;2022-09-29T07:29:03;20.70;91.90
24408;DHT22;12542;50.924;4.516;2022-09-29T07:31:29;20.00;93.10
24408;DHT22;12542;50.924;4.516;2022-09-29T07:33:55;19.30;94.50
24408;DHT22;12542;50.924;4.516;2022-09-29T07:36:22;19.00;95.60
24408;DHT22;12542;50.924;4.516;2022-09-29T07:38:49;18.70;96.00
24408;DHT22;12542;50.924;4.516;2022-09-29T07:41:16;18.60;96.20
24408;DHT22;12542;50.924;4.516;2022-09-29T07:43:43;18.50;95.60
24408;DHT22;12542;50.924;4.516;2022-09-29T07:46:08;16.40;99.20
24408;DHT22;12542;50.924;4.516;2022-09-29T07:48:36;15.10;99.90
24408;DHT22;12542;50.924;4.516;2022-09-29T07:51:08;14.70;99.90
24408;DHT22;12542;50.924;4.516;2022-09-29T07:53:37;14.50;99.90
24408;DHT22;12542;50.924;4.516;2022-09-29T07:56:15;14.40;99.90
24408;DHT22;12542;50.924;4.516;2022-09-29T07:58:43;14.20;99.90
24408;DHT22;12542;50.924;4.516;2022-09-29T08:01:10;15.10;99.90
24408;DHT22;12542;50.924;4.516;2022-09-29T08:03:39;15.90;99.90
24408;DHT22;12542;50.924;4.516;2022-09-29T08:06:06;16.70;99.90
24408;DHT22;12542;50.924;4.516;2022-09-29T08:08:37;17.20;99.90
24408;DHT22;12542;50.924;4.516;2022-09-29T08:11:05;18.30;99.90
24408;DHT22;12542;50.924;4.516;2022-09-29T08:13:31;18.90;99.70
24408;DHT22;12542;50.924;4.516;2022-09-29T08:15:59;19.60;99.80
24408;DHT22;12542;50.924;4.516;2022-09-29T08:18:26;18.70;98.80
24408;DHT22;12542;50.924;4.516;2022-09-29T08:20:52;18.20;99.90
24408;DHT22;12542;50.924;4.516;2022-09-29T08:23:21;18.90;99.60
24408;DHT22;12542;50.924;4.516;2022-09-29T08:26:01;18.90;99.70
24408;DHT22;12542;50.924;4.516;2022-09-29T08:28:28;19.30;98.90
24408;DHT22;12542;50.924;4.516;2022-09-29T08:30:54;18.00;99.50
24408;DHT22;12542;50.924;4.516;2022-09-29T08:33:20;17.90;99.90
24408;DHT22;12542;50.924;4.516;2022-09-29T08:35:54;17.90;99.90
24408;DHT22;12542;50.924;4.516;2022-09-29T08:38:20;18.20;99.90
24408;DHT22;12542;50.924;4.516;2022-09-29T08:40:46;18.40;99.90
24408;DHT22;12542;50.924;4.516;2022-09-29T08:43:25;18.40;99.90
24408;DHT22;12542;50.924;4.516;2022-09-29T08:46:03;18.80;99.90
24408;DHT22;12542;50.924;4.516;2022-09-29T08:48:40;18.90;99.90
24408;DHT22;12542;50.924;4.516;2022-09-29T08:51:46;19.30;99.40
24408;DHT22;12542;50.924;4.516;2022-09-29T08:56:46;19.50;99.00
24408;DHT22;12542;50.924;4.516;2022-09-29T08:59:12;19.40;99.90
24408;DHT22;12542;50.924;4.516;2022-09-29T09:01:46;19.00;99.20
24408;DHT22;12542;50.924;4.516;2022-09-29T09:04:25;19.00;99.70
24408;DHT22;12542;50.924;4.516;2022-09-29T09:07:00;18.70;99.90
24408;DHT22;12542;50.924;4.516;2022-09-29T09:20:22;20.10;99.30
24408;DHT22;12542;50.924;4.516;2022-09-29T09:23:39;20.20;97.60
24408;DHT22;12542;50.924;4.516;2022-09-29T09:25:57;19.60;99.30
24408;DHT22;12542;50.924;4.516;2022-09-29T09:28:34;19.80;98.90
24408;DHT22;12542;50.924;4.516;2022-09-29T09:31:25;19.50;98.80
24408;DHT22;12542;50.924;4.516;2022-09-29T09:34:13;19.40;99.90
24408;DHT22;12542;50.924;4.516;2022-09-29T09:36:46;19.70;98.80
24408;DHT22;12542;50.924;4.516;2022-09-29T09:39:20;20.00;98.80
24408;DHT22;12542;50.924;4.516;2022-09-29T09:41:50;20.30;98.20
24408;DHT22;12542;50.924;4.516;2022-09-29T09:46:57;19.90;97.60
24408;DHT22;12542;50.924;4.516;2022-09-29T09:49:38;19.90;97.60
24408;DHT22;12542;50.924;4.516;2022-09-29T09:52:17;19.40;98.30
24408;DHT22;12542;50.924;4.516;2022-09-29T09:54:50;19.70;99.90
24408;DHT22;12542;50.924;4.516;2022-09-29T09:57:44;20.20;98.30
24408;DHT22;12542;50.924;4.516;2022-09-29T10:00:17;19.90;97.00
24408;DHT22;12542;50.924;4.516;2022-09-29T10:02:49;20.00;97.10
24408;DHT22;12542;50.924;4.516;2022-09-29T10:05:36;20.20;97.30
24408;DHT22;12542;50.924;4.516;2022-09-29T10:08:05;20.30;97.00
24408;DHT22;12542;50.924;4.516;2022-09-29T10:10:35;19.80;97.50
24408;DHT22;12542;50.924;4.516;2022-09-29T10:13:04;19.60;98.60
24408;DHT22;12542;50.924;4.516;2022-09-29T10:18:06;20.20;99.10
24408;DHT22;12542;50.924;4.516;2022-09-29T10:20:38;20.80;97.50
24408;DHT22;12542;50.924;4.516;2022-09-29T10:23:32;21.10;96.70
24408;DHT22;12542;50.924;4.516;2022-09-29T10:28:35;20.90;94.70
24408;DHT22;12542;50.924;4.516;2022-09-29T10:31:01;20.70;97.80
24408;DHT22;12542;50.924;4.516;2022-09-29T10:33:28;21.10;95.80
24408;DHT22;12542;50.924;4.516;2022-09-29T10:36:19;21.20;94.00
24408;DHT22;12542;50.924;4.516;2022-09-29T10:38:49;20.90;96.80
24408;DHT22;12542;50.924;4.516;2022-09-29T10:41:15;20.60;94.60
24408;DHT22;12542;50.924;4.516;2022-09-29T10:43:43;19.90;94.90
24408;DHT22;12542;50.924;4.516;2022-09-29T10:49:13;20.90;97.10
24408;DHT22;12542;50.924;4.516;2022-09-29T10:51:58;21.00;93.50
24408;DHT22;12542;50.924;4.516;2022-09-29T10:54:25;21.10;95.60
24408;DHT22;12542;50.924;4.516;2022-09-29T10:56:52;21.50;93.60
24408;DHT22;12542;50.924;4.516;2022-09-29T10:59:18;21.90;93.70
24408;DHT22;12542;50.924;4.516;2022-09-29T11:01:56;22.00;91.90
24408;DHT22;12542;50.924;4.516;2022-09-29T11:04:32;21.90;91.00
24408;DHT22;12542;50.924;4.516;2022-09-29T11:07:10;22.00;91.50
24408;DHT22;12542;50.924;4.516;2022-09-29T11:09:39;22.20;91.50
24408;DHT22;12542;50.924;4.516;2022-09-29T11:12:33;22.10;90.70
24408;DHT22;12542;50.924;4.516;2022-09-29T11:15:00;22.00;92.40
24408;DHT22;12542;50.924;4.516;2022-09-29T11:17:36;22.40;91.20
24408;DHT22;12542;50.924;4.516;2022-09-29T11:20:05;22.50;91.10
24408;DHT22;12542;50.924;4.516;2022-09-29T11:25:45;22.30;87.10
24408;DHT22;12542;50.924;4.516;2022-09-29T11:31:15;22.70;90.20
24408;DHT22;12542;50.924;4.516;2022-09-29T11:36:30;22.30;84.20
24408;DHT22;12542;50.924;4.516;2022-09-29T11:39:08;22.30;89.10
24408;DHT22;12542;50.924;4.516;2022-09-29T11:41:55;22.30;87.40
24408;DHT22;12542;50.924;4.516;2022-09-29T12:00:15;20.30;95.90
24408;DHT22;12542;50.924;4.516;2022-09-29T12:03:13;20.20;95.70
24408;DHT22;12542;50.924;4.516;2022-09-29T12:13:41;19.60;94.60
24408;DHT22;12542;50.924;4.516;2022-09-29T12:16:18;19.80;94.30
24408;DHT22;12542;50.924;4.516;2022-09-29T12:18:52;20.40;93.70
24408;DHT22;12542;50.924;4.516;2022-09-29T12:21:31;20.40;92.30
24408;DHT22;12542;50.924;4.516;2022-09-29T12:24:00;20.30;93.60
24408;DHT22;12542;50.924;4.516;2022-09-29T12:26:28;20.00;90.80
24408;DHT22;12542;50.924;4.516;2022-09-29T12:29:21;20.00;91.10
24408;DHT22;12542;50.924;4.516;2022-09-29T12:31:50;20.10;92.00
24408;DHT22;12542;50.924;4.516;2022-09-29T12:34:25;20.20;90.50
24408;DHT22;12542;50.924;4.516;2022-09-29T12:37:12;19.80;91.60
24408;DHT22;12542;50.924;4.516;2022-09-29T12:39:44;19.70;91.50
24408;DHT22;12542;50.924;4.516;2022-09-29T12:58:14;20.30;95.10
24408;DHT22;12542;50.924;4.516;2022-09-29T13:00:48;20.00;96.10
24408;DHT22;12542;50.924;4.516;2022-09-29T13:08:49;21.00;93.10
24408;DHT22;12542;50.924;4.516;2022-09-29T13:14:15;20.60;93.20
24408;DHT22;12542;50.924;4.516;2022-09-29T13:27:37;19.60;96.60
24408;DHT22;12542;50.924;4.516;2022-09-29T13:32:42;19.20;97.10
24408;DHT22;12542;50.924;4.516;2022-09-29T13:35:20;19.00;96.50
24408;DHT22;12542;50.924;4.516;2022-09-29T13:37:49;18.80;97.60
24408;DHT22;12542;50.924;4.516;2022-09-29T13:40:26;18.60;98.30
24408;DHT22;12542;50.924;4.516;2022-09-29T13:43:00;18.60;99.30
24408;DHT22;12542;50.924;4.516;2022-09-29T13:48:00;18.80;97.90
24408;DHT22;12542;50.924;4.516;2022-09-29T13:50:51;18.70;99.30
24408;DHT22;12542;50.924;4.516;2022-09-29T13:55:53;18.70;99.10
24408;DHT22;12542;50.924;4.516;2022-09-29T13:58:29;18.70;98.20
24408;DHT22;12542;50.924;4.516;2022-09-29T14:00:59;18.70;98.70
24408;DHT22;12542;50.924;4.516;2022-09-29T14:03:29;18.70;98.10
24408;DHT22;12542;50.924;4.516;2022-09-29T14:06:22;18.70;99.60
24408;DHT22;12542;50.924;4.516;2022-09-29T14:09:14;18.50;99.90
24408;DHT22;12542;50.924;4.516;2022-09-29T14:11:48;18.40;99.60
24408;DHT22;12542;50.924;4.516;2022-09-29T14:17:02;18.40;98.20
24408;DHT22;12542;50.924;4.516;2022-09-29T14:20:13;18.60;96.90
24408;DHT22;12542;50.924;4.516;2022-09-29T14:28:04;18.70;99.00
24408;DHT22;12542;50.924;4.516;2022-09-29T14:33:08;18.90;98.10
24408;DHT22;12542;50.924;4.516;2022-09-29T14:38:30;18.70;97.90
24408;DHT22;12542;50.924;4.516;2022-09-29T14:58:19;18.70;97.80
24408;DHT22;12542;50.924;4.516;2022-09-29T15:04:11;18.30;98.10
24408;DHT22;12542;50.924;4.516;2022-09-29T15:06:49;18.00;97.40
24408;DHT22;12542;50.924;4.516;2022-09-29T15:09:18;18.00;99.00
24408;DHT22;12542;50.924;4.516;2022-09-29T15:11:54;18.10;98.00
24408;DHT22;12542;50.924;4.516;2022-09-29T15:14:30;18.10;96.90
24408;DHT22;12542;50.924;4.516;2022-09-29T15:23:28;17.80;98.90
24408;DHT22;12542;50.924;4.516;2022-09-29T15:25:44;17.80;98.70
24408;DHT22;12542;50.924;4.516;2022-09-29T15:28:17;17.70;99.10
24408;DHT22;12542;50.924;4.516;2022-09-29T15:30:45;17.70;99.80
24408;DHT22;12542;50.924;4.516;2022-09-29T15:33:25;17.80;99.90
24408;DHT22;12542;50.924;4.516;2022-09-29T15:36:25;17.80;99.90
24408;DHT22;12542;50.924;4.516;2022-09-29T15:38:53;18.00;99.90
24408;DHT22;12542;50.924;4.516;2022-09-29T15:41:20;17.70;99.90
24408;DHT22;12542;50.924;4.516;2022-09-29T15:46:21;17.50;99.90
24408;DHT22;12542;50.924;4.516;2022-09-29T15:49:16;17.30;99.90
24408;DHT22;12542;50.924;4.516;2022-09-29T15:52:06;17.20;99.90
24408;DHT22;12542;50.924;4.516;2022-09-29T15:54:39;17.30;99.90
24408;DHT22;12542;50.924;4.516;2022-09-29T16:03:18;17.10;99.90
24408;DHT22;12542;50.924;4.516;2022-09-29T16:08:35;16.90;99.90
24408;DHT22;12542;50.924;4.516;2022-09-29T16:11:17;16.60;99.90
24408;DHT22;12542;50.924;4.516;2022-09-29T16:13:48;16.60;99.90
24408;DHT22;12542;50.924;4.516;2022-09-29T16:16:15;16.60;99.90
24408;DHT22;12542;50.924;4.516;2022-09-29T16:18:43;16.60;99.90
24408;DHT22;12542;50.924;4.516;2022-09-29T16:21:18;16.60;99.90
24408;DHT22;12542;50.924;4.516;2022-09-29T16:23:49;16.50;99.90
24408;DHT22;12542;50.924;4.516;2022-09-29T16:31:32;16.30;99.90
24408;DHT22;12542;50.924;4.516;2022-09-29T16:33:59;16.20;99.90
24408;DHT22;12542;50.924;4.516;2022-09-29T16:36:31;16.10;99.90
24408;DHT22;12542;50.924;4.516;2022-09-29T16:38:59;16.00;99.90
24408;DHT22;12542;50.924;4.516;2022-09-29T16:41:36;15.80;99.90
24408;DHT22;12542;50.924;4.516;2022-09-29T16:47:03;15.60;99.90
24408;DHT22;12542;50.924;4.516;2022-09-29T16:49:51;15.60;99.90
24408;DHT22;12542;50.924;4.516;2022-09-29T16:52:23;15.40;99.90
24408;DHT22;12542;50.924;4.516;2022-09-29T16:54:51;15.30;99.90
24408;DHT22;12542;50.924;4.516;2022-09-29T17:00:05;15.00;99.90
24408;DHT22;12542;50.924;4.516;2022-09-29T17:02:32;14.90;99.90
24408;DHT22;12542;50.924;4.516;2022-09-29T17:04:58;14.80;99.90
24408;DHT22;12542;50.924;4.516;2022-09-29T17:07:31;14.80;99.90
24408;DHT22;12542;50.924;4.516;2022-09-29T17:10:03;14.70;99.90
24408;DHT22;12542;50.924;4.516;2022-09-29T17:12:29;14.70;99.90
24408;DHT22;12542;50.924;4.516;2022-09-29T17:14:56;14.60;99.90
24408;DHT22;12542;50.924;4.516;2022-09-29T17:17:24;14.50;99.90
24408;DHT22;12542;50.924;4.516;2022-09-29T17:19:51;14.50;99.90
24408;DHT22;12542;50.924;4.516;2022-09-29T17:22:30;14.40;99.90
24408;DHT22;12542;50.924;4.516;2022-09-29T17:24:57;14.40;99.90
24408;DHT22;12542;50.924;4.516;2022-09-29T17:27:23;14.40;99.90
24408;DHT22;12542;50.924;4.516;2022-09-29T17:30:09;14.30;99.90
24408;DHT22;12542;50.924;4.516;2022-09-29T17:32:36;14.20;99.90
24408;DHT22;12542;50.924;4.516;2022-09-29T17:35:08;14.20;99.90
24408;DHT22;12542;50.924;4.516;2022-09-29T17:37:37;14.20;99.90
24408;DHT22;12542;50.924;4.516;2022-09-29T17:42:55;14.10;99.90
24408;DHT22;12542;50.924;4.516;2022-09-29T17:45:23;14.10;99.90
24408;DHT22;12542;50.924;4.516;2022-09-29T17:47:50;14.00;99.90
24408;DHT22;12542;50.924;4.516;2022-09-29T17:50:41;14.00;99.90
24408;DHT22;12542;50.924;4.516;2022-09-29T17:53:08;13.90;99.90
24408;DHT22;12542;50.924;4.516;2022-09-29T17:55:36;13.90;99.90
24408;DHT22;12542;50.924;4.516;2022-09-29T17:58:02;13.80;99.90
24408;DHT22;12542;50.924;4.516;2022-09-29T18:02:58;13.70;99.90
24408;DHT22;12542;50.924;4.516;2022-09-29T18:05:26;13.60;99.90
24408;DHT22;12542;50.924;4.516;2022-09-29T18:07:54;13.60;99.90
24408;DHT22;12542;50.924;4.516;2022-09-29T18:13:05;13.50;99.90
24408;DHT22;12542;50.924;4.516;2022-09-29T18:15:32;13.40;99.90
24408;DHT22;12542;50.924;4.516;2022-09-29T18:17:59;13.40;99.90
24408;DHT22;12542;50.924;4.516;2022-09-29T18:20:28;13.30;99.90
24408;DHT22;12542;50.924;4.516;2022-09-29T18:22:54;13.30;99.90
24408;DHT22;12542;50.924;4.516;2022-09-29T18:25:25;13.30;99.90
24408;DHT22;12542;50.924;4.516;2022-09-29T18:27:51;13.20;99.90
24408;DHT22;12542;50.924;4.516;2022-09-29T18:30:19;13.20;99.90
24408;DHT22;12542;50.924;4.516;2022-09-29T18:32:46;13.20;99.90
24408;DHT22;12542;50.924;4.516;2022-09-29T18:35:18;13.20;99.90
24408;DHT22;12542;50.924;4.516;2022-09-29T18:37:43;13.20;99.90
24408;DHT22;12542;50.924;4.516;2022-09-29T18:40:09;13.10;99.90
24408;DHT22;12542;50.924;4.516;2022-09-29T18:42:46;13.00;99.90
24408;DHT22;12542;50.924;4.516;2022-09-29T18:45:15;12.90;99.90
24408;DHT22;12542;50.924;4.516;2022-09-29T18:47:48;12.80;99.90
24408;DHT22;12542;50.924;4.516;2022-09-29T18:50:17;12.80;99.90
24408;DHT22;12542;50.924;4.516;2022-09-29T18:52:47;12.70;99.90
24408;DHT22;12542;50.924;4.516;2022-09-29T18:55:17;12.70;99.90
24408;DHT22;12542;50.924;4.516;2022-09-29T18:57:44;12.60;99.90
24408;DHT22;12542;50.924;4.516;2022-09-29T19:00:15;12.60;99.90
24408;DHT22;12542;50.924;4.516;2022-09-29T19:02:43;12.60;99.90
24408;DHT22;12542;50.924;4.516;2022-09-29T19:05:11;12.50;99.90
24408;DHT22;12542;50.924;4.516;2022-09-29T19:07:41;12.50;99.90
24408;DHT22;12542;50.924;4.516;2022-09-29T19:10:08;12.50;99.90
24408;DHT22;12542;50.924;4.516;2022-09-29T19:12:34;12.40;99.90
24408;DHT22;12542;50.924;4.516;2022-09-29T19:15:00;12.30;99.90
24408;DHT22;12542;50.924;4.516;2022-09-29T19:17:27;12.30;99.90
24408;DHT22;12542;50.924;4.516;2022-09-29T19:19:55;12.30;99.90
24408;DHT22;12542;50.924;4.516;2022-09-29T19:22:21;12.20;99.90